Accueil
METAR-TAF:

METAR-TAF

Aéroports :

Eastern Slopes Regional Airport

Fryeburg, Maine, États-Unis

latitude: 43-59-21N, longitude: 070-57-01W, altitude: 137 m

Observation

Le bulletin a été fait il y a 54 minutes, à 11:54 UTC
Vent calme
Température -1°C
Humidité 74%
Pression 1021 hPa
Visibilité: 16.1 km
Ciel clair

METAR: KIZG 281154Z AUTO 00000KT 10SM CLR M01/M05 A3015 RMK AO2 SLP214 T10111050 11011 21067 51012

Heure: 08:48 (12:48 UTC)


TAF: absent

Observations et prévisions météorologiques de plus de 4000 aéroports (messages METAR et TAF).

Les stations disponibles sont représentées par des disques jaunes et rouges sur la carte.

Passer la souris dessus pour voir le nom de la station.

Cliquer dessus pour voir les observations et prévisions météorologiques.

Pour changer de carte: cliquez sur les boutons verts avec une croix noire pour zoomer, sur le bouton vert avec un tiret pour effectuer un zoom arrière, ou sur les flèches vertes pour les cartes adjacentes.


METAR-TAF: